KDKR

Details ICAO KDKR
Name Crockett Houston County
Region United States
Timezone America/Chicago (UTC-6.0)
Plans Departing 4
Arriving 5
Stats Elevation 348 ft / 106 m (AMSL)
Location 31.306929° -95.403830°
Runways 1
Magnetic Variation 2.468° E
Sunrise 2017-12-11 13:12:00 UTC / 2017-12-11 07:12:00 Local
Sunset 2017-12-11 23:20:53 UTC / 2017-12-11 17:20:53 Local
Advertisement - Login to hide

Runways

ID Width Length Bearing (true) Bearing (mag) Surface Threshold Offset Overrun Length
02 75 ft / 23 m 4,031 ft / 1,229 m 21.29° 18.82° Asphalt 0 ft / 0 m 0 ft / 0 m
20 75 ft / 23 m 4,031 ft / 1,229 m 201.29° 198.82° Asphalt 0 ft / 0 m 0 ft / 0 m

Map

Weather


0- 5 10 15 20 25 30 35+ Temperature / ° C

Clouds and Precipitation
Forecast for 2017-12-12 00:00 UTC. Updated 2 hours ago

Ground ~20,000 ft ~40,000 ft Winds

METAR

KDKR 112230Z AUTO 21004KT 10SM 17/05 A3017 RMK AO2

TAF

Not found

Frequencies

Recorded 118.77 MHz AWOS 3
Unicom 122.90 MHz CTAF
Warning: Do not use this data for real-world aviation or navigation. No guarantee of current accuracy is given.